createdAt,value
2023-04-16T00:01:36.490Z,3.20
2023-04-16T00:04:38.472Z,2.80
2023-04-16T00:07:41.081Z,3.10
2023-04-16T00:10:42.951Z,3.47
2023-04-16T00:13:44.652Z,3.80
2023-04-16T00:16:46.780Z,4.10
2023-04-16T00:19:48.460Z,5.13
2023-04-16T00:22:51.220Z,3.43
2023-04-16T00:25:53.873Z,3.10
2023-04-16T00:28:55.706Z,3.50
2023-04-16T00:31:57.483Z,3.33
2023-04-16T00:34:59.081Z,2.80
2023-04-16T00:38:00.745Z,3.23
2023-04-16T00:41:02.604Z,3.87
2023-04-16T00:44:04.259Z,4.23
2023-04-16T00:47:07.634Z,3.80
2023-04-16T00:50:10.157Z,3.60
2023-04-16T00:53:11.950Z,3.00
2023-04-16T00:56:13.798Z,4.00
2023-04-16T00:59:15.481Z,3.47
2023-04-16T01:02:17.518Z,3.87
2023-04-16T01:05:19.509Z,3.67
2023-04-16T01:08:22.038Z,3.80
2023-04-16T01:11:23.751Z,4.33
2023-04-16T01:14:25.345Z,3.73
2023-04-16T01:17:27.044Z,4.10
2023-04-16T01:20:29.038Z,3.77
2023-04-16T01:23:30.846Z,3.43
2023-04-16T01:26:32.433Z,3.80
2023-04-16T01:29:35.097Z,3.80
2023-04-16T01:32:36.980Z,3.10
2023-04-16T01:35:39.382Z,3.23
2023-04-16T01:38:41.061Z,3.20
2023-04-16T01:41:43.027Z,3.10
2023-04-16T01:44:44.679Z,3.50
2023-04-16T01:47:46.900Z,3.27
2023-04-16T01:50:48.729Z,2.97
2023-04-16T01:53:50.716Z,2.67
2023-04-16T01:56:52.249Z,3.03
2023-04-16T01:59:53.947Z,3.17
2023-04-16T02:02:57.174Z,2.83
2023-04-16T02:06:02.492Z,2.80
2023-04-16T02:09:05.626Z,2.40
2023-04-16T02:12:07.835Z,4.10
2023-04-16T02:15:09.839Z,3.67
2023-04-16T02:18:11.615Z,3.50
2023-04-16T02:21:13.988Z,3.73
2023-04-16T02:24:16.418Z,2.87
2023-04-16T02:27:18.218Z,2.70
2023-04-16T02:30:19.972Z,3.40
2023-04-16T02:33:21.834Z,2.97
2023-04-16T02:36:36.398Z,2.93
2023-04-16T02:39:38.237Z,3.30
2023-04-16T02:42:39.885Z,3.20
2023-04-16T02:45:42.263Z,2.60
2023-04-16T02:48:43.940Z,2.80
2023-04-16T02:51:45.630Z,2.60
2023-04-16T02:54:47.356Z,3.50
2023-04-16T02:57:49.116Z,3.40
2023-04-16T03:00:51.416Z,3.77
2023-04-16T03:03:53.062Z,3.30
2023-04-16T03:06:54.798Z,2.97
2023-04-16T03:09:56.478Z,3.33
2023-04-16T03:12:58.217Z,3.10
2023-04-16T03:15:59.929Z,3.73
2023-04-16T03:19:01.776Z,2.90
2023-04-16T03:22:03.514Z,3.20
2023-04-16T03:25:05.442Z,3.40
2023-04-16T03:28:07.233Z,3.33
2023-04-16T03:31:09.417Z,4.53
2023-04-16T03:34:12.865Z,3.13
2023-04-16T03:37:16.185Z,3.07
2023-04-16T03:40:18.457Z,3.03
2023-04-16T03:43:20.094Z,3.50
2023-04-16T03:46:21.950Z,3.20
2023-04-16T03:49:23.766Z,3.53
2023-04-16T03:52:26.083Z,3.07
2023-04-16T03:55:28.879Z,3.93
2023-04-16T03:58:32.449Z,3.80
2023-04-16T04:01:34.212Z,7.07
2023-04-16T04:04:36.424Z,4.00
2023-04-16T04:07:38.218Z,3.30
2023-04-16T04:10:40.374Z,3.40
2023-04-16T04:13:44.599Z,3.20
2023-04-16T04:16:46.287Z,4.00
2023-04-16T04:20:00.453Z,4.27
2023-04-16T04:23:04.659Z,4.07
2023-04-16T04:26:07.570Z,4.70
2023-04-16T04:29:09.887Z,4.57
2023-04-16T04:32:11.823Z,5.93
2023-04-16T04:35:13.547Z,5.80
2023-04-16T04:38:19.897Z,5.13
2023-04-16T04:41:22.072Z,5.67
2023-04-16T04:44:23.775Z,6.10
2023-04-16T04:47:26.365Z,6.27
2023-04-16T04:50:28.624Z,6.03
2023-04-16T04:53:30.390Z,6.00
2023-04-16T04:56:32.217Z,6.00
2023-04-16T04:59:34.196Z,8.20
2023-04-16T05:02:36.090Z,6.30
2023-04-16T05:05:39.029Z,7.00
2023-04-16T05:08:40.851Z,7.47
2023-04-16T05:11:42.456Z,7.03
2023-04-16T05:14:48.358Z,6.47
2023-04-16T05:17:50.201Z,6.77
2023-04-16T05:20:51.901Z,5.97
2023-04-16T05:23:53.613Z,7.07
2023-04-16T05:26:56.882Z,7.20
2023-04-16T05:29:58.538Z,6.93
2023-04-16T05:33:00.405Z,6.73
2023-04-16T05:36:02.180Z,6.40
2023-04-16T05:39:04.069Z,6.50
2023-04-16T05:42:05.698Z,4.43
2023-04-16T05:45:07.869Z,4.37
2023-04-16T05:48:13.856Z,3.53
2023-04-16T05:51:15.613Z,4.13
2023-04-16T05:54:17.284Z,3.60
2023-04-16T05:57:18.967Z,4.70
2023-04-16T06:00:20.984Z,4.43
2023-04-16T06:03:22.761Z,4.50
2023-04-16T06:06:24.503Z,4.87
2023-04-16T06:09:26.162Z,4.40
2023-04-16T06:12:27.741Z,4.70
2023-04-16T06:15:29.532Z,4.77
2023-04-16T06:18:31.361Z,4.70
2023-04-16T06:21:33.566Z,4.60
2023-04-16T06:24:35.367Z,4.83
2023-04-16T06:27:37.276Z,4.90
2023-04-16T06:30:39.304Z,4.30
2023-04-16T06:33:41.093Z,4.67
2023-04-16T06:36:42.760Z,4.30
2023-04-16T06:39:44.460Z,5.03
2023-04-16T06:42:46.387Z,5.10
2023-04-16T06:45:48.101Z,5.73
2023-04-16T06:48:49.867Z,5.30
2023-04-16T06:51:51.517Z,5.17
2023-04-16T06:54:53.120Z,5.43
2023-04-16T06:57:54.823Z,5.37
2023-04-16T07:00:56.555Z,5.70
2023-04-16T07:03:58.578Z,5.23
2023-04-16T07:07:00.599Z,6.20
2023-04-16T07:10:02.339Z,6.40
2023-04-16T07:13:04.003Z,6.30
2023-04-16T07:16:05.918Z,6.43
2023-04-16T07:19:07.762Z,5.40
2023-04-16T07:22:09.580Z,5.10
2023-04-16T07:25:11.287Z,5.60
2023-04-16T07:28:13.381Z,5.23
2023-04-16T07:31:15.039Z,5.30
2023-04-16T07:34:16.595Z,4.77
2023-04-16T07:37:18.338Z,5.07
2023-04-16T07:40:20.065Z,4.90
2023-04-16T07:43:21.658Z,4.70
2023-04-16T07:46:24.900Z,4.60
2023-04-16T07:49:28.176Z,4.83
2023-04-16T07:52:29.925Z,4.43
2023-04-16T07:55:31.586Z,4.57
2023-04-16T07:58:33.285Z,4.63
2023-04-16T08:01:34.986Z,5.03
2023-04-16T08:04:36.714Z,5.47
2023-04-16T08:07:38.576Z,5.00
2023-04-16T08:10:40.258Z,5.30
2023-04-16T08:13:41.857Z,5.87
2023-04-16T08:16:43.466Z,6.33
2023-04-16T08:19:45.474Z,6.60
2023-04-16T08:22:48.538Z,6.97
2023-04-16T08:25:51.848Z,6.27
2023-04-16T08:28:54.702Z,6.13
2023-04-16T08:31:56.549Z,6.33
2023-04-16T08:34:58.295Z,5.93
2023-04-16T08:38:02.366Z,6.33
2023-04-16T08:41:06.095Z,6.67
2023-04-16T08:44:08.807Z,6.80
2023-04-16T08:47:12.132Z,6.40
2023-04-16T08:50:14.840Z,6.30
2023-04-16T08:53:18.512Z,7.03
2023-04-16T08:56:21.234Z,8.23
2023-04-16T08:59:23.104Z,6.80
2023-04-16T09:02:26.398Z,6.80
2023-04-16T09:05:29.305Z,7.20
2023-04-16T09:08:32.352Z,6.50
2023-04-16T09:11:34.272Z,8.37
2023-04-16T09:14:36.364Z,8.27
2023-04-16T09:17:38.391Z,8.73
2023-04-16T09:20:40.064Z,8.70
2023-04-16T09:23:41.944Z,8.80
2023-04-16T09:26:44.173Z,7.93
2023-04-16T09:29:46.330Z,7.33
2023-04-16T09:32:48.421Z,7.90
2023-04-16T09:35:51.195Z,7.97
2023-04-16T09:38:54.495Z,6.60
2023-04-16T09:41:57.409Z,6.30
2023-04-16T09:45:00.808Z,5.70
2023-04-16T09:48:05.647Z,5.43
2023-04-16T09:51:07.592Z,6.23
2023-04-16T09:54:18.550Z,7.47
2023-04-16T09:57:22.067Z,6.70
2023-04-16T10:00:23.780Z,7.07
2023-04-16T10:03:31.638Z,6.73
2023-04-16T10:06:33.367Z,7.27
2023-04-16T10:09:38.441Z,6.67
2023-04-16T10:12:40.459Z,7.07
2023-04-16T10:15:42.178Z,7.57
2023-04-16T10:18:45.191Z,6.57
2023-04-16T10:21:47.491Z,6.70
2023-04-16T10:24:50.605Z,7.20
2023-04-16T10:27:52.471Z,6.57
2023-04-16T10:30:55.027Z,6.77
2023-04-16T10:33:56.953Z,6.40
2023-04-16T10:36:58.688Z,6.67
2023-04-16T10:40:00.494Z,6.50
2023-04-16T10:43:02.138Z,6.33
2023-04-16T10:46:22.889Z,6.00
2023-04-16T10:49:25.135Z,6.00
2023-04-16T10:52:29.258Z,6.10
2023-04-16T10:55:31.198Z,5.23
2023-04-16T10:58:35.403Z,5.20
2023-04-16T11:01:38.591Z,6.93
2023-04-16T11:04:42.335Z,5.67
2023-04-16T11:07:49.329Z,5.50
2023-04-16T11:10:51.761Z,5.50
2023-04-16T11:13:56.369Z,5.37
2023-04-16T11:16:58.174Z,4.90
2023-04-16T11:20:00.053Z,4.60
2023-04-16T11:23:01.704Z,4.53
2023-04-16T11:26:03.443Z,4.50
2023-04-16T11:29:13.277Z,4.53
2023-04-16T11:32:20.752Z,4.80
2023-04-16T11:35:22.482Z,5.27
2023-04-16T11:38:32.736Z,5.30
2023-04-16T11:41:34.541Z,5.17
2023-04-16T11:44:36.313Z,3.93
2023-04-16T11:47:45.805Z,4.60
2023-04-16T11:50:54.933Z,3.70
2023-04-16T11:53:56.695Z,3.83
2023-04-16T11:56:58.416Z,3.20
2023-04-16T12:00:01.599Z,3.00
2023-04-16T12:03:14.472Z,2.87
2023-04-16T12:06:16.471Z,3.27
2023-04-16T12:09:25.120Z,3.50
2023-04-16T12:12:32.128Z,3.00
2023-04-16T12:15:43.771Z,3.00
2023-04-16T12:18:59.193Z,3.13
2023-04-16T12:22:00.875Z,3.53
2023-04-16T12:25:03.890Z,3.10
2023-04-16T12:28:06.290Z,4.43
2023-04-16T12:31:08.585Z,3.40
2023-04-16T12:34:10.562Z,3.07
2023-04-16T12:37:12.961Z,3.50
2023-04-16T12:40:15.114Z,3.43
2023-04-16T12:43:16.989Z,3.30
2023-04-16T12:46:18.667Z,3.47
2023-04-16T12:49:20.491Z,3.50
2023-04-16T12:52:23.708Z,3.60
2023-04-16T12:55:25.966Z,3.70
2023-04-16T12:58:27.696Z,3.63
2023-04-16T13:01:29.467Z,3.33
2023-04-16T13:04:31.188Z,3.60
2023-04-16T13:07:34.041Z,3.30
2023-04-16T13:10:35.990Z,3.23
2023-04-16T13:13:37.622Z,3.23
2023-04-16T13:16:39.271Z,3.10
2023-04-16T13:19:40.929Z,3.33
2023-04-16T13:22:42.649Z,2.77
2023-04-16T13:25:44.313Z,2.80
2023-04-16T13:28:45.923Z,2.90
2023-04-16T13:31:47.784Z,3.40
2023-04-16T13:34:49.806Z,2.70
2023-04-16T13:37:51.482Z,2.70
2023-04-16T13:40:53.154Z,3.73
2023-04-16T13:43:54.969Z,3.80
2023-04-16T13:46:56.805Z,3.53
2023-04-16T13:49:58.570Z,3.53
2023-04-16T13:53:00.764Z,3.67
2023-04-16T13:56:03.745Z,4.03
2023-04-16T13:59:05.393Z,3.80
2023-04-16T14:02:07.642Z,3.67
2023-04-16T14:05:09.323Z,3.70
2023-04-16T14:08:11.333Z,3.30
2023-04-16T14:11:13.107Z,3.60
2023-04-16T14:14:14.929Z,3.63
2023-04-16T14:17:16.542Z,4.03
2023-04-16T14:20:19.105Z,3.43
2023-04-16T14:23:20.706Z,3.87
2023-04-16T14:26:22.637Z,3.97
2023-04-16T14:29:24.355Z,4.03
2023-04-16T14:32:29.060Z,3.40
2023-04-16T14:35:30.737Z,3.53
2023-04-16T14:38:32.628Z,2.90
2023-04-16T14:41:34.392Z,2.73
2023-04-16T14:44:35.964Z,2.70
2023-04-16T14:47:38.544Z,2.70
2023-04-16T14:50:43.659Z,2.80
2023-04-16T14:53:45.340Z,2.93
2023-04-16T14:56:47.526Z,2.90
2023-04-16T14:59:49.166Z,2.57
2023-04-16T15:02:51.191Z,2.90
2023-04-16T15:05:55.945Z,3.00
2023-04-16T15:08:57.873Z,4.20
2023-04-16T15:11:59.831Z,4.30
2023-04-16T15:15:01.491Z,4.27
2023-04-16T15:18:03.886Z,3.90
2023-04-16T15:21:06.250Z,4.00
2023-04-16T15:24:08.241Z,3.63
2023-04-16T15:27:11.937Z,5.53
2023-04-16T15:30:13.821Z,4.70
2023-04-16T15:33:15.565Z,4.30
2023-04-16T15:36:17.305Z,4.50
2023-04-16T15:39:18.981Z,3.97
2023-04-16T15:42:20.811Z,3.93
2023-04-16T15:45:22.555Z,4.43
2023-04-16T15:48:24.425Z,4.77
2023-04-16T15:51:26.768Z,5.40
2023-04-16T15:54:29.143Z,8.67
2023-04-16T15:57:30.802Z,6.00
2023-04-16T16:00:32.728Z,21.53
2023-04-16T16:03:36.084Z,7.80
2023-04-16T16:06:38.203Z,4.73
2023-04-16T16:09:39.960Z,5.33
2023-04-16T16:12:41.839Z,4.60
2023-04-16T16:15:43.616Z,5.10
2023-04-16T16:18:45.465Z,5.33
2023-04-16T16:21:47.085Z,4.97
2023-04-16T16:24:50.958Z,5.13
2023-04-16T16:27:52.927Z,5.27
2023-04-16T16:30:55.750Z,4.87
2023-04-16T16:33:57.477Z,5.10
2023-04-16T16:36:59.174Z,5.17
2023-04-16T16:40:00.878Z,5.40
2023-04-16T16:43:02.834Z,6.60
2023-04-16T16:46:07.368Z,4.77
2023-04-16T16:49:10.112Z,4.87
2023-04-16T16:52:11.971Z,6.23
2023-04-16T16:55:13.659Z,4.87
2023-04-16T16:58:15.511Z,4.10
2023-04-16T17:01:17.736Z,4.43
2023-04-16T17:04:20.470Z,4.53
2023-04-16T17:07:22.378Z,4.73
2023-04-16T17:10:24.214Z,4.57
2023-04-16T17:13:27.134Z,4.57
2023-04-16T17:16:28.904Z,4.17
2023-04-16T17:19:30.698Z,4.57
2023-04-16T17:22:32.444Z,4.10
2023-04-16T17:25:34.310Z,5.00
2023-04-16T17:28:36.052Z,6.77
2023-04-16T17:31:37.805Z,8.20
2023-04-16T17:34:39.554Z,4.83
2023-04-16T17:37:41.352Z,4.27
2023-04-16T17:40:43.115Z,4.30
2023-04-16T17:43:46.763Z,4.50
2023-04-16T17:46:48.392Z,4.47
2023-04-16T17:49:52.844Z,4.57
2023-04-16T17:52:54.526Z,4.80
2023-04-16T17:55:56.852Z,4.50
2023-04-16T17:58:59.322Z,4.63
2023-04-16T18:02:01.436Z,4.27
2023-04-16T18:05:03.256Z,4.40
2023-04-16T18:08:05.051Z,3.80
2023-04-16T18:11:08.226Z,4.07
2023-04-16T18:14:13.860Z,4.70
2023-04-16T18:17:15.697Z,4.37
2023-04-16T18:20:19.546Z,4.20
2023-04-16T18:23:21.410Z,4.10
2023-04-16T18:26:23.182Z,4.23
2023-04-16T18:29:25.584Z,4.43
2023-04-16T18:32:30.995Z,5.00
2023-04-16T18:35:33.122Z,5.50
2023-04-16T18:38:34.888Z,5.77
2023-04-16T18:41:36.659Z,6.60
2023-04-16T18:44:38.316Z,6.00
2023-04-16T18:47:40.683Z,5.37
2023-04-16T18:50:42.496Z,5.40
2023-04-16T18:53:45.704Z,7.00
2023-04-16T18:56:47.702Z,6.30
2023-04-16T18:59:49.469Z,6.33
2023-04-16T19:02:51.187Z,7.00
2023-04-16T19:05:53.333Z,7.90
2023-04-16T19:08:55.024Z,7.00
2023-04-16T19:11:57.475Z,11.43
2023-04-16T19:14:59.274Z,8.07
2023-04-16T19:18:00.969Z,6.60
2023-04-16T19:21:02.731Z,7.83
2023-04-16T19:24:04.546Z,10.70
2023-04-16T19:27:06.571Z,13.40
2023-04-16T19:30:08.558Z,27.40
2023-04-16T19:33:10.715Z,21.87
2023-04-16T19:36:12.512Z,26.13
2023-04-16T19:39:14.282Z,20.43
2023-04-16T19:42:15.948Z,11.93
2023-04-16T19:45:18.375Z,12.37
2023-04-16T19:48:20.556Z,12.90
2023-04-16T19:51:22.643Z,12.00
2023-04-16T19:54:24.304Z,10.00
2023-04-16T19:57:25.947Z,11.83
2023-04-16T20:00:27.679Z,11.30
2023-04-16T20:03:29.424Z,9.80
2023-04-16T20:06:31.244Z,9.70
2023-04-16T20:09:33.011Z,10.20
2023-04-16T20:12:34.695Z,9.57
2023-04-16T20:15:36.420Z,9.83
2023-04-16T20:18:41.386Z,10.57
2023-04-16T20:21:43.380Z,10.97
2023-04-16T20:24:47.961Z,11.43
2023-04-16T20:27:49.884Z,12.37
2023-04-16T20:30:51.555Z,12.47
2023-04-16T20:33:54.101Z,11.03
2023-04-16T20:36:55.879Z,10.70
2023-04-16T20:39:57.521Z,11.13
2023-04-16T20:43:02.233Z,11.10
2023-04-16T20:46:10.809Z,10.43
2023-04-16T20:49:13.894Z,9.47
2023-04-16T20:52:16.600Z,9.60
2023-04-16T20:55:18.439Z,8.90
2023-04-16T20:58:20.083Z,8.90
2023-04-16T21:01:21.830Z,10.03
2023-04-16T21:04:23.741Z,10.73
2023-04-16T21:07:25.529Z,9.47
2023-04-16T21:10:27.163Z,9.40
2023-04-16T21:13:28.835Z,10.37
2023-04-16T21:16:30.586Z,10.73
2023-04-16T21:19:32.242Z,11.93
2023-04-16T21:22:33.934Z,11.10
2023-04-16T21:25:35.600Z,10.27
2023-04-16T21:28:37.528Z,12.57
2023-04-16T21:31:39.350Z,10.90
2023-04-16T21:34:40.986Z,10.13
2023-04-16T21:37:42.684Z,10.17
2023-04-16T21:40:45.607Z,11.10
2023-04-16T21:43:47.277Z,11.10
2023-04-16T21:46:48.997Z,12.40
2023-04-16T21:49:50.698Z,11.10
2023-04-16T21:52:52.563Z,10.73
2023-04-16T21:55:54.223Z,10.83
2023-04-16T21:58:55.901Z,9.90
2023-04-16T22:01:57.571Z,10.80
2023-04-16T22:04:59.254Z,10.13
2023-04-16T22:08:04.025Z,9.93
2023-04-16T22:11:12.704Z,11.70
2023-04-16T22:14:14.690Z,11.60
2023-04-16T22:17:17.168Z,8.83
2023-04-16T22:20:18.864Z,9.67
2023-04-16T22:23:23.587Z,10.60
2023-04-16T22:26:25.320Z,10.73
2023-04-16T22:29:27.083Z,10.90
2023-04-16T22:32:30.285Z,11.23
2023-04-16T22:35:32.152Z,10.20
2023-04-16T22:38:33.835Z,9.93
2023-04-16T22:41:35.970Z,10.50
2023-04-16T22:44:37.716Z,9.67
2023-04-16T22:47:39.497Z,9.83
2023-04-16T22:50:45.847Z,11.27
2023-04-16T22:53:47.500Z,10.53
2023-04-16T22:56:50.001Z,10.00
2023-04-16T22:59:52.140Z,9.50
2023-04-16T23:02:53.898Z,9.67
2023-04-16T23:05:55.933Z,9.00
2023-04-16T23:08:57.569Z,8.50
2023-04-16T23:11:59.159Z,8.97
2023-04-16T23:15:00.908Z,9.40
2023-04-16T23:18:02.673Z,9.03
2023-04-16T23:21:04.404Z,9.67
2023-04-16T23:24:06.170Z,9.27
2023-04-16T23:27:07.841Z,8.87
2023-04-16T23:30:09.713Z,8.27
2023-04-16T23:33:11.407Z,9.53
2023-04-16T23:36:12.968Z,9.03
2023-04-16T23:39:14.656Z,9.17
2023-04-16T23:42:16.526Z,8.40
2023-04-16T23:45:18.266Z,8.53
2023-04-16T23:48:19.859Z,8.57
2023-04-16T23:51:21.521Z,8.40
2023-04-16T23:54:23.338Z,8.40
2023-04-16T23:57:25.056Z,8.57
